createdAt,value
2022-09-16T00:00:15.467Z,14.43
2022-09-16T00:03:18.126Z,14.35
2022-09-16T00:06:23.728Z,14.39
2022-09-16T00:09:25.420Z,14.39
2022-09-16T00:12:27.147Z,14.39
2022-09-16T00:15:28.860Z,14.38
2022-09-16T00:18:30.542Z,14.46
2022-09-16T00:21:32.541Z,14.39
2022-09-16T00:24:34.170Z,14.39
2022-09-16T00:27:35.932Z,14.42
2022-09-16T00:30:37.581Z,14.30
2022-09-16T00:33:39.267Z,14.37
2022-09-16T00:36:40.934Z,14.30
2022-09-16T00:39:42.736Z,14.40
2022-09-16T00:42:44.409Z,14.55
2022-09-16T00:45:54.752Z,14.32
2022-09-16T00:48:58.722Z,14.22
2022-09-16T00:52:04.415Z,14.24
2022-09-16T00:55:10.104Z,14.33
2022-09-16T00:58:29.284Z,14.40
2022-09-16T01:01:32.074Z,14.24
2022-09-16T01:04:41.545Z,14.27
2022-09-16T01:07:46.048Z,14.32
2022-09-16T01:10:47.771Z,14.32
2022-09-16T01:13:50.282Z,14.14
2022-09-16T01:17:05.719Z,14.13
2022-09-16T01:20:31.815Z,14.19
2022-09-16T01:24:10.634Z,14.21
2022-09-16T01:27:30.272Z,14.20
2022-09-16T01:30:59.172Z,14.08
2022-09-16T01:34:39.222Z,14.16
2022-09-16T01:38:14.584Z,14.13
2022-09-16T01:41:28.848Z,14.15
2022-09-16T01:44:46.087Z,14.07
2022-09-16T01:48:06.785Z,14.12
2022-09-16T01:51:42.376Z,14.09
2022-09-16T01:54:53.995Z,14.16
2022-09-16T01:58:03.366Z,14.06
2022-09-16T02:01:12.887Z,14.14
2022-09-16T02:04:24.036Z,14.02
2022-09-16T02:07:34.146Z,14.15
2022-09-16T02:10:43.834Z,14.12
2022-09-16T02:13:51.830Z,14.23
2022-09-16T02:17:05.508Z,14.20
2022-09-16T02:20:14.759Z,14.18
2022-09-16T02:23:22.168Z,14.07
2022-09-16T02:26:36.986Z,14.25
2022-09-16T02:29:44.642Z,14.21
2022-09-16T02:32:52.206Z,14.30
2022-09-16T02:35:55.549Z,14.22
2022-09-16T02:39:05.773Z,14.24
2022-09-16T02:42:08.033Z,14.29
2022-09-16T02:45:10.277Z,14.31
2022-09-16T02:48:21.366Z,14.30
2022-09-16T02:51:32.016Z,14.32
2022-09-16T02:54:45.189Z,14.28
2022-09-16T02:57:47.076Z,14.19
2022-09-16T03:00:53.314Z,14.25
2022-09-16T03:03:55.225Z,14.27
2022-09-16T03:06:57.227Z,14.30
2022-09-16T03:09:59.087Z,14.19
2022-09-16T03:13:28.825Z,14.27
2022-09-16T03:16:53.218Z,14.30
2022-09-16T03:20:30.168Z,14.30
2022-09-16T03:24:07.629Z,14.23
2022-09-16T03:27:11.697Z,14.26
2022-09-16T03:30:13.581Z,14.22
2022-09-16T03:33:34.742Z,14.27
2022-09-16T03:36:41.473Z,14.30
2022-09-16T03:39:47.849Z,14.27
2022-09-16T03:42:52.482Z,14.37
2022-09-16T03:45:54.266Z,14.31
2022-09-16T03:48:57.254Z,14.24
2022-09-16T03:51:59.314Z,14.31
2022-09-16T03:55:00.992Z,14.13
2022-09-16T03:58:02.695Z,14.36
2022-09-16T04:01:04.937Z,14.36
2022-09-16T04:04:06.755Z,14.38
2022-09-16T04:07:08.476Z,14.38
2022-09-16T04:10:18.796Z,14.47
2022-09-16T04:13:20.440Z,14.36
2022-09-16T04:16:22.314Z,14.36
2022-09-16T04:19:24.853Z,14.36
2022-09-16T04:22:30.791Z,14.44
2022-09-16T04:25:32.476Z,14.35
2022-09-16T04:28:34.336Z,14.10
2022-09-16T04:31:36.103Z,13.97
2022-09-16T04:34:37.775Z,14.01
2022-09-16T04:37:39.423Z,14.08
2022-09-16T04:40:41.081Z,14.03
2022-09-16T04:43:42.727Z,13.98
2022-09-16T04:46:44.484Z,14.05
2022-09-16T04:49:46.189Z,13.90
2022-09-16T04:52:48.048Z,13.87
2022-09-16T04:55:49.910Z,13.72
2022-09-16T04:58:54.846Z,13.78
2022-09-16T05:01:57.206Z,13.60
2022-09-16T05:04:59.122Z,13.54
2022-09-16T05:08:01.092Z,13.65
2022-09-16T05:11:09.363Z,13.49
2022-09-16T05:14:15.955Z,13.59
2022-09-16T05:17:39.458Z,13.46
2022-09-16T05:20:39.525Z,13.33
2022-09-16T05:23:44.534Z,13.30
2022-09-16T05:26:48.316Z,13.32
2022-09-16T05:29:50.159Z,13.30
2022-09-16T05:32:55.365Z,13.19
2022-09-16T05:36:06.405Z,13.01
2022-09-16T05:39:25.020Z,12.90
2022-09-16T05:42:27.334Z,12.88
2022-09-16T05:45:32.401Z,12.94
2022-09-16T05:48:36.438Z,12.64
2022-09-16T05:51:41.478Z,12.67
2022-09-16T05:54:44.603Z,12.44
2022-09-16T05:57:46.484Z,12.33
2022-09-16T06:00:48.480Z,12.35
2022-09-16T06:03:52.025Z,12.39
2022-09-16T06:06:53.935Z,12.46
2022-09-16T06:09:55.867Z,12.38
2022-09-16T06:12:57.672Z,12.18
2022-09-16T06:15:59.775Z,12.38
2022-09-16T06:19:03.812Z,12.34
2022-09-16T06:22:16.481Z,12.02
2022-09-16T06:25:18.778Z,12.01
2022-09-16T06:28:21.166Z,12.10
2022-09-16T06:31:26.310Z,12.17
2022-09-16T06:34:28.307Z,12.02
2022-09-16T06:37:30.505Z,12.18
2022-09-16T06:40:32.480Z,12.06
2022-09-16T06:43:35.174Z,12.15
2022-09-16T06:46:39.806Z,12.22
2022-09-16T06:49:44.803Z,12.10
2022-09-16T06:52:54.486Z,12.30
2022-09-16T06:56:04.812Z,11.94
2022-09-16T06:59:07.943Z,12.02
2022-09-16T07:02:11.778Z,12.17
2022-09-16T07:05:13.889Z,12.08
2022-09-16T07:08:16.094Z,12.39
2022-09-16T07:11:25.234Z,12.27
2022-09-16T07:14:28.381Z,12.22
2022-09-16T07:17:30.376Z,12.39
2022-09-16T07:20:32.260Z,12.54
2022-09-16T07:23:35.364Z,12.53
2022-09-16T07:26:39.891Z,12.53
2022-09-16T07:29:47.177Z,12.67
2022-09-16T07:33:01.427Z,12.04
2022-09-16T07:36:37.778Z,12.26
2022-09-16T07:39:44.521Z,12.08
2022-09-16T07:42:54.200Z,11.95
2022-09-16T07:46:00.734Z,12.24
2022-09-16T07:49:12.159Z,12.14
2022-09-16T07:52:17.405Z,12.15
2022-09-16T07:55:27.829Z,12.25
2022-09-16T08:03:13.196Z,12.08
2022-09-16T08:06:21.016Z,12.14
2022-09-16T08:22:40.401Z,13.10
2022-09-16T08:25:46.341Z,12.76
2022-09-16T08:29:07.976Z,13.16
2022-09-16T08:32:11.667Z,13.21
2022-09-16T08:35:14.523Z,13.29
2022-09-16T08:38:16.277Z,13.29
2022-09-16T08:41:26.803Z,13.30
2022-09-16T08:44:51.966Z,13.43
2022-09-16T08:48:10.046Z,13.59
2022-09-16T08:51:19.837Z,13.46
2022-09-16T08:54:31.182Z,13.58
2022-09-16T08:57:40.153Z,13.61
2022-09-16T09:00:49.815Z,13.67
2022-09-16T09:03:51.698Z,13.91
2022-09-16T09:07:16.977Z,13.76
2022-09-16T09:10:47.723Z,13.88
2022-09-16T09:14:04.506Z,13.95
2022-09-16T09:17:21.384Z,14.06
2022-09-16T09:20:50.502Z,14.27
2022-09-16T09:24:20.075Z,14.23
2022-09-16T09:27:40.760Z,14.28
2022-09-16T09:30:49.324Z,14.09
2022-09-16T09:34:09.072Z,14.21
2022-09-16T09:37:36.347Z,14.32
2022-09-16T09:40:49.196Z,14.34
2022-09-16T09:44:15.579Z,14.57
2022-09-16T09:47:33.245Z,14.60
2022-09-16T09:50:45.164Z,14.72
2022-09-16T09:53:53.212Z,14.77
2022-09-16T09:57:16.721Z,14.84
2022-09-16T10:00:22.095Z,14.74
2022-09-16T10:03:24.943Z,14.74
2022-09-16T10:06:30.719Z,14.71
2022-09-16T10:09:33.803Z,14.80
2022-09-16T10:12:36.637Z,14.67
2022-09-16T10:15:39.432Z,14.59
2022-09-16T10:18:41.803Z,14.50
2022-09-16T10:21:51.086Z,14.61
2022-09-16T10:24:57.182Z,14.61
2022-09-16T10:28:26.347Z,14.62
2022-09-16T10:31:34.824Z,14.54
2022-09-16T10:34:40.271Z,14.54
2022-09-16T10:37:51.846Z,14.70
2022-09-16T10:40:58.064Z,14.91
2022-09-16T10:44:01.394Z,14.98
2022-09-16T10:47:08.407Z,15.11
2022-09-16T10:50:19.550Z,15.19
2022-09-16T10:53:26.294Z,15.45
2022-09-16T10:56:49.239Z,15.61
2022-09-16T10:59:58.166Z,15.67
2022-09-16T11:03:15.408Z,15.79
2022-09-16T11:06:51.028Z,16.29
2022-09-16T11:09:57.474Z,16.26
2022-09-16T11:13:36.962Z,16.13
2022-09-16T11:17:17.488Z,16.30
2022-09-16T11:20:43.506Z,16.36
2022-09-16T11:24:17.295Z,16.15
2022-09-16T11:27:52.768Z,16.26
2022-09-16T11:31:17.116Z,16.18
2022-09-16T11:34:52.355Z,16.09
2022-09-16T11:38:19.162Z,15.51
2022-09-16T11:41:37.599Z,15.67
2022-09-16T11:45:29.382Z,15.63
2022-09-16T11:48:59.803Z,15.85
2022-09-16T11:52:21.511Z,16.15
2022-09-16T11:55:43.917Z,16.81
2022-09-16T11:58:50.404Z,17.29
2022-09-16T12:02:03.453Z,17.64
2022-09-16T12:05:23.185Z,17.93
2022-09-16T12:08:53.231Z,17.67
2022-09-16T12:12:05.779Z,17.59
2022-09-16T12:15:19.117Z,18.38
2022-09-16T12:18:33.325Z,18.44
2022-09-16T12:21:42.963Z,17.53
2022-09-16T12:25:06.606Z,17.27
2022-09-16T12:28:17.673Z,17.43
2022-09-16T12:31:24.231Z,17.02
2022-09-16T12:34:29.683Z,17.11
2022-09-16T12:37:45.978Z,17.34
2022-09-16T12:40:58.039Z,18.19
2022-09-16T12:44:34.285Z,17.99
2022-09-16T12:48:24.756Z,17.72
2022-09-16T12:51:45.907Z,18.22
2022-09-16T12:55:25.737Z,19.27
2022-09-16T12:58:52.396Z,19.05
2022-09-16T13:02:01.784Z,19.72
2022-09-16T13:05:14.637Z,19.32
2022-09-16T13:08:26.689Z,18.98
2022-09-16T13:14:54.881Z,18.23
2022-09-16T13:18:09.151Z,17.97
2022-09-16T13:21:20.806Z,17.85
2022-09-16T13:24:36.726Z,17.79
2022-09-16T13:27:40.589Z,17.62
2022-09-16T13:30:42.504Z,17.90
2022-09-16T13:33:46.883Z,17.41
2022-09-16T13:36:48.687Z,16.96
2022-09-16T13:39:50.547Z,16.85
2022-09-16T13:43:23.806Z,17.00
2022-09-16T13:46:38.194Z,16.73
2022-09-16T13:49:53.465Z,16.98
2022-09-16T13:52:55.290Z,17.07
2022-09-16T13:56:07.273Z,17.31
2022-09-16T13:59:37.360Z,16.99
2022-09-16T14:03:06.135Z,16.78
2022-09-16T14:06:23.621Z,16.56
2022-09-16T14:09:45.495Z,16.37
2022-09-16T14:13:17.561Z,16.38
2022-09-16T14:16:26.313Z,16.37
2022-09-16T14:19:32.957Z,16.31
2022-09-16T14:22:35.018Z,16.36
2022-09-16T14:25:38.708Z,16.45
2022-09-16T14:28:40.703Z,16.22
2022-09-16T14:31:45.352Z,16.05
2022-09-16T14:34:50.467Z,16.12
2022-09-16T14:38:03.783Z,16.19
2022-09-16T14:41:07.827Z,16.24
2022-09-16T14:44:18.803Z,16.34
2022-09-16T14:47:47.366Z,16.22
2022-09-16T14:50:52.001Z,15.98
2022-09-16T14:54:12.218Z,16.01
2022-09-16T14:57:23.176Z,15.92
2022-09-16T15:00:49.247Z,15.94
2022-09-16T15:04:05.106Z,15.78
2022-09-16T15:07:15.932Z,15.94
2022-09-16T15:10:26.948Z,16.13
2022-09-16T15:13:35.499Z,15.99
2022-09-16T15:16:49.832Z,16.26
2022-09-16T15:19:58.240Z,16.15
2022-09-16T15:23:02.818Z,16.41
2022-09-16T15:26:18.818Z,16.33
2022-09-16T15:29:20.737Z,16.20
2022-09-16T15:32:27.528Z,16.27
2022-09-16T15:35:35.635Z,16.44
2022-09-16T15:38:40.953Z,16.44
2022-09-16T15:41:45.540Z,16.61
2022-09-16T15:44:50.224Z,16.59
2022-09-16T15:47:56.941Z,16.36
2022-09-16T15:51:08.292Z,16.18
2022-09-16T15:54:31.300Z,16.29
2022-09-16T15:57:36.097Z,16.29
2022-09-16T16:01:13.398Z,16.23
2022-09-16T16:04:25.512Z,15.96
2022-09-16T16:07:41.144Z,15.96
2022-09-16T16:10:44.820Z,15.95
2022-09-16T16:13:47.535Z,15.92
2022-09-16T16:17:11.095Z,15.83
2022-09-16T16:20:13.484Z,15.60
2022-09-16T16:23:15.159Z,15.43
2022-09-16T16:26:17.128Z,15.46
2022-09-16T16:29:18.759Z,15.39
2022-09-16T16:32:20.353Z,15.54
2022-09-16T16:35:21.977Z,15.58
2022-09-16T16:38:23.645Z,15.42
2022-09-16T16:41:25.815Z,15.25
2022-09-16T16:44:27.785Z,15.36
2022-09-16T16:47:29.400Z,15.30
2022-09-16T16:50:31.111Z,15.28
2022-09-16T16:53:32.929Z,15.20
2022-09-16T16:56:34.600Z,15.11
2022-09-16T16:59:36.551Z,15.02
2022-09-16T17:02:38.174Z,14.94
2022-09-16T17:05:39.943Z,14.70
2022-09-16T17:08:41.714Z,14.46
2022-09-16T17:11:55.227Z,14.57
2022-09-16T17:14:56.904Z,14.50
2022-09-16T17:17:58.611Z,14.33
2022-09-16T17:21:09.056Z,14.22
2022-09-16T17:24:11.130Z,14.06
2022-09-16T17:27:14.690Z,14.02
2022-09-16T17:30:16.987Z,13.98
2022-09-16T17:33:18.643Z,13.90
2022-09-16T17:36:22.244Z,13.87
2022-09-16T17:39:24.180Z,13.78
2022-09-16T17:42:25.920Z,13.68
2022-09-16T17:45:27.561Z,13.58
2022-09-16T17:48:29.976Z,13.68
2022-09-16T17:51:33.000Z,13.67
2022-09-16T17:54:34.655Z,13.54
2022-09-16T17:57:36.287Z,13.49
2022-09-16T18:00:38.340Z,13.54
2022-09-16T18:03:42.429Z,13.58
2022-09-16T18:06:46.136Z,13.51
2022-09-16T18:09:47.779Z,13.44
2022-09-16T18:12:49.502Z,13.48
2022-09-16T18:15:51.121Z,13.46
2022-09-16T18:18:55.773Z,13.40
2022-09-16T18:21:57.481Z,13.38
2022-09-16T18:24:59.253Z,13.24
2022-09-16T18:28:00.891Z,13.11
2022-09-16T18:31:05.188Z,13.06
2022-09-16T18:34:07.359Z,13.15
2022-09-16T18:37:09.145Z,13.08
2022-09-16T18:40:11.335Z,13.12
2022-09-16T18:43:13.009Z,12.98
2022-09-16T18:46:26.513Z,12.93
2022-09-16T18:49:30.198Z,12.90
2022-09-16T18:52:32.074Z,12.69
2022-09-16T18:55:33.783Z,12.53
2022-09-16T18:58:35.489Z,12.65
2022-09-16T19:01:38.719Z,12.65
2022-09-16T19:04:42.517Z,12.56
2022-09-16T19:07:44.289Z,12.39
2022-09-16T19:10:45.910Z,12.40
2022-09-16T19:13:47.601Z,12.48
2022-09-16T19:16:49.461Z,12.47
2022-09-16T19:19:51.210Z,12.46
2022-09-16T19:22:52.931Z,12.39
2022-09-16T19:26:01.063Z,12.41
2022-09-16T19:29:06.791Z,12.54
2022-09-16T19:32:08.695Z,12.50
2022-09-16T19:35:10.439Z,12.50
2022-09-16T19:38:12.169Z,12.41
2022-09-16T19:41:14.697Z,12.44
2022-09-16T19:44:17.937Z,12.49
2022-09-16T19:47:19.683Z,12.49
2022-09-16T19:50:21.289Z,12.49
2022-09-16T19:53:22.874Z,12.45
2022-09-16T19:56:27.177Z,12.26
2022-09-16T19:59:28.965Z,12.16
2022-09-16T20:02:30.625Z,12.26
2022-09-16T20:05:32.442Z,12.21
2022-09-16T20:08:36.789Z,12.24
2022-09-16T20:11:42.878Z,12.28
2022-09-16T20:14:44.481Z,12.20
2022-09-16T20:17:46.289Z,12.21
2022-09-16T20:20:49.359Z,12.16
2022-09-16T20:23:52.220Z,12.25
2022-09-16T20:26:56.005Z,12.26
2022-09-16T20:29:57.699Z,12.21
2022-09-16T20:32:59.333Z,12.18
2022-09-16T20:36:06.587Z,12.12
2022-09-16T20:39:09.158Z,11.96
2022-09-16T20:42:10.902Z,11.96
2022-09-16T20:45:12.836Z,12.00
2022-09-16T20:48:14.526Z,12.04
2022-09-16T20:51:19.128Z,11.94
2022-09-16T20:54:20.855Z,11.92
2022-09-16T20:57:22.606Z,11.97
2022-09-16T21:00:24.286Z,11.91
2022-09-16T21:03:25.949Z,11.84
2022-09-16T21:06:29.218Z,11.88
2022-09-16T21:09:30.991Z,11.90
2022-09-16T21:12:32.663Z,11.85
2022-09-16T21:15:34.270Z,11.82
2022-09-16T21:18:35.929Z,11.86
2022-09-16T21:21:40.468Z,11.81
2022-09-16T21:24:42.589Z,11.80
2022-09-16T21:27:44.170Z,11.81
2022-09-16T21:30:45.955Z,11.81
2022-09-16T21:33:52.019Z,11.84
2022-09-16T21:36:53.768Z,11.86
2022-09-16T21:39:55.486Z,11.82
2022-09-16T21:42:57.240Z,11.75
2022-09-16T21:45:59.578Z,11.74
2022-09-16T21:49:03.274Z,11.69
2022-09-16T21:52:05.202Z,11.68
2022-09-16T21:55:07.237Z,11.68
2022-09-16T21:58:09.173Z,11.57
2022-09-16T22:01:20.399Z,11.60
2022-09-16T22:04:24.376Z,11.55
2022-09-16T22:07:26.076Z,11.60
2022-09-16T22:10:29.240Z,11.72
2022-09-16T22:13:32.383Z,11.71
2022-09-16T22:16:37.505Z,11.75
2022-09-16T22:19:39.231Z,11.67
2022-09-16T22:22:40.905Z,11.61
2022-09-16T22:25:42.508Z,11.63
2022-09-16T22:28:44.316Z,11.76
2022-09-16T22:31:46.299Z,11.75
2022-09-16T22:34:49.536Z,11.62
2022-09-16T22:37:51.464Z,11.58
2022-09-16T22:40:53.345Z,11.62
2022-09-16T22:43:55.329Z,11.56
2022-09-16T22:46:57.131Z,11.63
2022-09-16T22:49:59.170Z,11.61
2022-09-16T22:53:01.180Z,11.64
2022-09-16T22:56:07.844Z,11.53
2022-09-16T22:59:16.362Z,11.51
2022-09-16T23:02:17.961Z,11.45
2022-09-16T23:05:19.677Z,11.39
2022-09-16T23:08:21.647Z,11.36
2022-09-16T23:11:26.370Z,11.32
2022-09-16T23:14:28.150Z,11.32
2022-09-16T23:17:29.831Z,11.28
2022-09-16T23:20:32.140Z,11.37
2022-09-16T23:23:39.661Z,11.18
2022-09-16T23:26:41.648Z,11.21
2022-09-16T23:29:43.390Z,11.10
2022-09-16T23:32:45.348Z,11.19
2022-09-16T23:35:49.950Z,11.12
2022-09-16T23:38:53.019Z,11.04
2022-09-16T23:41:54.684Z,11.07
2022-09-16T23:44:56.426Z,10.95
2022-09-16T23:47:58.223Z,10.95
2022-09-16T23:50:59.939Z,10.98
2022-09-16T23:54:01.628Z,10.98
2022-09-16T23:57:03.457Z,11.03
